Time;durP1;ratioP1;P1;durP2;ratioP2;P2;SDS_P1;SDS_P2;PMS_P1;PMS_P2;Temp;Humidity;BMP_temperature;BMP_pressure;BME280_temperature;BME280_humidity;BME280_pressure;Samples;Min_cycle;Max_cycle;Signal;HPM_P1;HPM_P2
2022/09/24 07:12:11;;;;;;;2.58;0.65;;;14.30;76.40;;;;;;1829744;24;20101;-90
2022/09/24 07:15:10;;;;;;;3.42;0.93;;;14.30;73.30;;;;;;4801671;29;20118;-90
2022/09/24 07:17:38;;;;;;;2.30;0.55;;;14.30;71.60;;;;;;4806298;29;20047;-90
2022/09/24 07:20:05;;;;;;;2.85;0.47;;;14.30;73.70;;;;;;4805918;29;20510;-90
2022/09/24 07:22:41;;;;;;;6.70;0.80;;;14.30;65.50;;;;;;4806151;29;20109;-92
2022/09/24 07:25:13;;;;;;;5.22;0.73;;;14.30;67.50;;;;;;4807990;29;20047;-92
2022/09/24 07:27:47;;;;;;;3.50;0.90;;;14.30;65.90;;;;;;4808430;29;20047;-90
2022/09/24 08:08:38;;;;;;;6.63;0.82;;;14.50;56.00;;;;;;4819031;29;20089;-91
2022/09/24 08:11:21;;;;;;;9.65;1.33;;;14.60;60.50;;;;;;4805854;29;20062;-91
2022/09/24 08:13:49;;;;;;;3.97;0.65;;;14.50;54.30;;;;;;4805362;29;20051;-90
2022/09/24 08:16:20;;;;;;;9.52;0.82;;;14.60;56.40;;;;;;4806177;29;20043;-89
2022/09/24 08:18:49;;;;;;;4.00;0.55;;;14.50;49.80;;;;;;4807101;29;20051;-90
2022/09/24 08:21:19;;;;;;;9.68;1.30;;;14.60;46.00;;;;;;4790932;29;20082;-90
2022/09/24 08:23:55;;;;;;;5.05;1.05;;;14.60;49.40;;;;;;4805132;29;20051;-89
2022/09/24 09:14:32;;;;;;;2.10;0.25;;;15.40;1.00;;;;;;5039291;24;20062;-92
2022/09/24 10:48:55;;;;;;;3.03;0.85;;;16.30;1.00;;;;;;1222560;27;20133;-91
2022/09/24 11:13:59;;;;;;;4.22;0.90;;;17.10;1.00;;;;;;4805238;29;20077;-93
2022/09/24 11:21:25;;;;;;;3.78;0.80;;;17.10;1.00;;;;;;4786288;30;20055;-92
2022/09/24 11:28:50;;;;;;;5.00;0.70;;;17.30;1.00;;;;;;4796616;29;20077;-95
2022/09/24 11:32:13;;;;;;;5.00;0.43;;;17.20;1.00;;;;;;4774221;30;20071;-91
2022/09/24 11:35:17;;;;;;;11.02;1.52;;;17.20;1.00;;;;;;4788584;29;20051;-92
2022/09/24 11:51:43;;;;;;;5.13;0.60;;;17.10;1.00;;;;;;5682287;24;20146;-90
2022/09/24 11:54:37;;;;;;;4.10;1.05;;;17.10;1.00;;;;;;4804810;29;20058;-89
2022/09/24 12:14:53;;;;;;;3.70;0.80;;;16.90;1.00;;;;;;4804116;29;20047;-91
2022/09/24 12:18:01;;;;;;;4.22;0.70;;;16.80;1.00;;;;;;4776745;30;20105;-91
2022/09/24 12:20:48;;;;;;;7.88;0.60;;;16.80;1.00;;;;;;4791584;30;20044;-89
2022/09/24 12:23:25;;;;;;;4.55;0.90;;;16.70;1.00;;;;;;4793013;29;20078;-89
2022/09/24 12:26:07;;;;;;;4.53;0.70;;;16.80;1.00;;;;;;4790159;30;20055;-91
2022/09/24 12:33:15;;;;;;;5.22;1.55;;;16.90;1.00;;;;;;4793439;30;20034;-91
2022/09/24 12:35:54;;;;;;;1.42;0.30;;;17.00;1.00;;;;;;4792183;30;20047;-91
2022/09/24 12:38:30;;;;;;;1.50;0.30;;;16.90;1.00;;;;;;4794784;30;20495;-91
2022/09/24 12:41:29;;;;;;;;;;;17.00;1.00;;;;;;4777172;30;20069;-91
2022/09/24 12:44:04;;;;;;;8.35;0.90;;;17.00;1.00;;;;;;4776573;30;19925;-91
2022/09/24 12:47:07;;;;;;;6.60;0.50;;;17.00;1.00;;;;;;4790636;30;20062;-92
2022/09/24 12:49:49;;;;;;;2.58;0.77;;;17.10;1.00;;;;;;4791414;30;20051;-91
2022/09/24 12:52:24;;;;;;;6.07;0.90;;;17.10;1.00;;;;;;4775793;30;20055;-93
2022/09/24 12:55:03;;;;;;;6.05;0.95;;;17.10;1.00;;;;;;4791315;30;20051;-91
2022/09/24 13:01:24;;;;;;;5.15;1.38;;;17.10;1.00;;;;;;4791420;29;20055;-93
2022/09/24 13:04:24;;;;;;;4.97;0.40;;;17.10;1.00;;;;;;4789982;30;20433;-89
2022/09/24 13:06:54;;;;;;;2.60;0.80;;;17.20;1.00;;;;;;4791503;30;20055;-91
2022/09/24 13:09:39;;;;;;;5.05;0.70;;;17.20;1.00;;;;;;4790904;30;20602;-92
2022/09/24 13:12:16;;;;;;;4.22;0.70;;;17.30;1.00;;;;;;4775444;30;20517;-90
2022/09/24 13:15:00;;;;;;;5.00;1.40;;;17.30;1.00;;;;;;4790453;30;20142;-90
2022/09/24 13:17:32;;;;;;;4.22;0.55;;;17.40;1.00;;;;;;4776680;30;20066;-90
2022/09/24 13:20:07;;;;;;;4.13;0.70;;;17.40;1.00;;;;;;4791126;29;20475;-90
2022/09/24 13:22:38;;;;;;;5.43;0.93;;;17.30;1.00;;;;;;4792606;30;20073;-91
2022/09/24 13:34:34;;;;;;;4.70;0.95;;;17.40;1.00;;;;;;4807137;30;20111;-89
2022/09/24 13:37:21;;;;;;;4.00;0.73;;;17.40;1.00;;;;;;4791666;29;20051;-88
2022/09/24 13:40:10;;;;;;;2.63;0.88;;;17.50;1.00;;;;;;4790384;30;20143;-89
